Time;durP1;ratioP1;P1;durP2;ratioP2;P2;SDS_P1;SDS_P2;PMS_P1;PMS_P2;Temp;Humidity;BMP_temperature;BMP_pressure;BME280_temperature;BME280_humidity;BME280_pressure;Samples;Min_cycle;Max_cycle;Signal;HPM_P1;HPM_P2
2021/09/10 00:00:57;;;;;;;32.80;26.80;;;;;;;11.11;87.10;99116.42;111183;1196;62544;-80
2021/09/10 00:03:24;;;;;;;29.90;26.00;;;;;;;11.10;87.36;99115.21;111255;1196;61924;-80
2021/09/10 00:05:50;;;;;;;29.90;26.30;;;;;;;11.09;87.32;99116.39;111216;1204;66742;-80
2021/09/10 00:08:17;;;;;;;27.70;24.40;;;;;;;11.07;87.39;99118.65;111214;1204;62627;-80
2021/09/10 00:10:44;;;;;;;30.10;24.00;;;;;;;11.07;87.87;99118.77;111206;1204;62365;-80
2021/09/10 00:13:10;;;;;;;31.40;25.00;;;;;;;11.10;87.94;99116.66;111221;1204;62013;-80
2021/09/10 00:15:37;;;;;;;27.60;23.40;;;;;;;11.09;87.90;99116.33;111238;1196;61850;-80
2021/09/10 00:18:04;;;;;;;27.90;23.70;;;;;;;11.10;87.86;99120.07;111236;1204;66472;-80
2021/09/10 00:20:30;;;;;;;28.00;22.90;;;;;;;11.11;88.05;99119.79;111197;1204;61986;-80
2021/09/10 00:22:57;;;;;;;28.00;22.40;;;;;;;11.12;87.84;99123.60;111212;1204;63665;-80
2021/09/10 00:25:23;;;;;;;28.10;23.20;;;;;;;11.14;87.94;99123.83;111230;1196;61963;-78
2021/09/10 00:27:50;;;;;;;29.40;23.70;;;;;;;11.17;88.13;99121.52;111182;1204;61917;-79
2021/09/10 00:30:17;;;;;;;25.70;22.90;;;;;;;11.16;88.17;99123.90;111181;1204;67749;-79
2021/09/10 00:32:44;;;;;;;28.00;22.20;;;;;;;11.12;88.12;99118.45;111169;1203;61874;-79
2021/09/10 00:35:11;;;;;;;28.30;23.00;;;;;;;11.08;88.35;99124.09;111173;1203;63846;-79
2021/09/10 00:37:38;;;;;;;25.80;22.30;;;;;;;11.02;88.48;99124.63;111155;1197;61884;-79
2021/09/10 00:40:06;;;;;;;23.70;20.90;;;;;;;10.99;88.56;99123.09;111010;1197;61902;-79
2021/09/10 00:42:32;;;;;;;24.90;22.00;;;;;;;10.98;88.55;99122.62;110859;1204;67863;-79
2021/09/10 00:44:59;;;;;;;22.50;19.70;;;;;;;10.96;88.69;99121.98;111056;1204;61848;-79
2021/09/10 00:47:26;;;;;;;22.40;18.20;;;;;;;10.96;89.03;99122.35;111136;1197;63690;-79
2021/09/10 00:49:53;;;;;;;22.20;18.20;;;;;;;10.99;89.20;99122.89;111120;1204;61896;-79
2021/09/10 00:52:20;;;;;;;24.00;19.90;;;;;;;11.01;89.15;99124.19;111099;1197;61893;-79
2021/09/10 00:54:47;;;;;;;37.80;33.70;;;;;;;11.03;89.19;99125.83;111137;1204;75558;-79
2021/09/10 00:57:14;;;;;;;37.70;33.50;;;;;;;11.05;89.24;99124.98;111197;1203;61838;-81
2021/09/10 00:59:41;;;;;;;22.60;19.30;;;;;;;11.06;89.32;99124.95;111166;1204;64947;-81
2021/09/10 01:02:08;;;;;;;25.80;22.00;;;;;;;11.03;89.27;99127.61;111161;1204;61855;-79
2021/09/10 01:04:35;;;;;;;21.90;18.10;;;;;;;10.99;89.35;99127.30;111235;1204;61906;-81
2021/09/10 01:07:02;;;;;;;28.90;24.50;;;;;;;10.96;89.29;99133.38;111207;1204;66537;-79
2021/09/10 01:09:30;;;;;;;20.80;17.50;;;;;;;10.95;89.46;99128.67;111190;1204;61932;-78
2021/09/10 01:11:58;;;;;;;25.20;21.50;;;;;;;10.94;89.54;99132.09;111148;1204;62595;-79
2021/09/10 01:14:26;;;;;;;21.90;18.00;;;;;;;10.93;89.45;99127.55;111131;1197;61906;-79
2021/09/10 01:16:54;;;;;;;21.80;19.10;;;;;;;10.93;89.64;99130.73;111223;1204;61857;-79
2021/09/10 01:19:29;;;;;;;19.70;17.70;;;;;;;10.94;89.64;99127.85;111151;1204;66910;-79
2021/09/10 01:21:59;;;;;;;22.10;17.30;;;;;;;10.92;89.64;99134.17;111198;1204;62040;-79
2021/09/10 01:24:34;;;;;;;;;;;;;;;10.90;89.50;99133.44;111194;1204;64011;-78
2021/09/10 01:27:02;;;;;;;20.00;17.50;;;;;;;10.91;89.76;99135.66;111174;1197;61893;-79
2021/09/10 01:29:32;;;;;;;22.30;18.10;;;;;;;10.89;89.50;99131.90;111158;1198;61909;-79
2021/09/10 01:31:58;;;;;;;19.30;17.30;;;;;;;10.86;89.59;99134.40;111178;1203;66493;-79
2021/09/10 01:34:25;;;;;;;19.90;17.20;;;;;;;10.82;89.35;99132.18;111094;1204;61819;-79
2021/09/10 01:36:52;;;;;;;19.50;16.50;;;;;;;10.77;89.29;99132.18;111079;1204;63760;-78
2021/09/10 01:39:19;;;;;;;17.90;16.00;;;;;;;10.73;89.46;99131.71;111106;1197;62529;-81
2021/09/10 01:41:46;;;;;;;17.60;15.70;;;;;;;10.72;89.49;99134.30;111135;1203;61894;-79
2021/09/10 01:44:12;;;;;;;19.20;16.00;;;;;;;10.71;89.49;99138.41;111190;1200;67454;-79
2021/09/10 01:46:40;;;;;;;20.10;16.70;;;;;;;10.69;89.56;99137.45;111187;1204;61800;-79
2021/09/10 01:49:07;;;;;;;18.20;15.40;;;;;;;10.67;89.53;99138.67;111178;1204;64980;-80
2021/09/10 01:51:34;;;;;;;20.70;17.30;;;;;;;10.65;89.49;99140.04;111244;1204;61861;-81
2021/09/10 01:54:00;;;;;;;21.50;19.20;;;;;;;10.60;89.47;99140.36;111218;1204;61860;-81
2021/09/10 01:56:28;;;;;;;22.50;20.30;;;;;;;10.55;89.53;99140.86;111237;1203;65133;-80
2021/09/10 01:58:54;;;;;;;20.50;18.30;;;;;;;10.50;89.40;99139.92;111217;1196;62211;-80
2021/09/10 02:01:26;;;;;;;19.00;17.10;;;;;;;10.48;89.55;99138.87;111220;1204;64999;-79
2021/09/10 02:03:53;;;;;;;23.80;18.00;;;;;;;10.43;89.61;99138.24;111166;1204;61870;-79
2021/09/10 02:06:20;;;;;;;16.50;14.70;;;;;;;10.40;89.76;99132.11;111159;1196;61871;-79
2021/09/10 02:08:47;;;;;;;16.00;14.10;;;;;;;10.36;89.59;99130.55;111116;1204;65394;-79
2021/09/10 02:11:14;;;;;;;13.20;11.80;;;;;;;10.32;89.53;99129.21;111178;1204;61925;-79
2021/09/10 02:13:41;;;;;;;16.40;14.70;;;;;;;10.29;89.73;99128.84;111165;1204;64958;-80
2021/09/10 02:16:11;;;;;;;18.30;16.20;;;;;;;10.27;89.82;99131.98;111145;1204;61883;-80
2021/09/10 02:18:39;;;;;;;14.30;12.90;;;;;;;10.27;89.71;99137.33;111203;1195;61906;-80
2021/09/10 02:21:06;;;;;;;16.90;15.10;;;;;;;10.24;89.53;99138.21;111168;1204;65552;-80
2021/09/10 02:23:34;;;;;;;20.80;18.70;;;;;;;10.21;89.63;99142.27;111144;1204;61797;-80
2021/09/10 02:26:01;;;;;;;19.90;17.70;;;;;;;10.20;89.60;99142.73;111129;1198;62634;-79
2021/09/10 02:28:28;;;;;;;19.20;17.20;;;;;;;10.17;89.66;99139.57;111173;1196;61857;-80
2021/09/10 02:30:54;;;;;;;23.20;20.40;;;;;;;10.13;89.76;99140.50;111191;1204;61879;-79
2021/09/10 02:33:21;;;;;;;20.90;18.50;;;;;;;10.09;89.99;99139.16;111185;1204;66779;-80
2021/09/10 02:35:48;;;;;;;21.10;17.40;;;;;;;10.07;90.10;99136.22;111168;1204;61896;-80
2021/09/10 02:38:14;;;;;;;20.90;18.40;;;;;;;10.08;90.31;99133.36;111170;1204;63678;-82
2021/09/10 02:40:41;;;;;;;23.00;19.10;;;;;;;10.06;90.24;99137.01;111233;1204;61931;-80
2021/09/10 02:43:08;;;;;;;19.20;15.30;;;;;;;10.06;90.37;99135.80;111241;1204;61880;-79
2021/09/10 02:45:35;;;;;;;20.20;17.90;;;;;;;10.04;90.35;99129.15;111127;1204;66686;-78
2021/09/10 02:48:01;;;;;;;23.60;20.30;;;;;;;9.99;90.51;99139.58;111239;1204;61860;-81
2021/09/10 02:50:28;;;;;;;20.60;17.80;;;;;;;9.96;90.85;99137.63;111166;1198;63883;-81
2021/09/10 02:52:55;;;;;;;22.60;20.30;;;;;;;9.93;90.74;99135.36;111182;1195;61825;-83
2021/09/10 02:55:22;;;;;;;23.10;20.50;;;;;;;9.91;90.88;99135.15;111238;1204;61912;-81
2021/09/10 02:57:48;;;;;;;22.30;19.80;;;;;;;9.86;90.96;99131.73;111225;1204;67727;-80
2021/09/10 03:00:15;;;;;;;22.40;19.80;;;;;;;9.83;91.03;99134.91;111210;1204;62728;-81
2021/09/10 03:02:42;;;;;;;21.50;19.30;;;;;;;9.79;90.77;99135.45;111171;1204;64664;-80
2021/09/10 03:05:10;;;;;;;23.30;19.50;;;;;;;9.78;90.92;99133.09;111178;1204;61891;-81
2021/09/10 03:07:37;;;;;;;21.00;18.80;;;;;;;9.80;91.28;99132.39;111181;1198;61798;-81
2021/09/10 03:10:05;;;;;;;24.00;20.10;;;;;;;9.78;91.16;99133.59;111133;1204;65283;-81
2021/09/10 03:12:33;;;;;;;22.60;20.20;;;;;;;9.73;91.13;99131.81;111211;1204;61899;-78
2021/09/10 03:15:00;;;;;;;21.60;19.30;;;;;;;9.67;91.26;99132.66;111119;1204;64951;-79
2021/09/10 03:17:27;;;;;;;24.70;22.10;;;;;;;9.66;91.39;99133.29;111147;1197;61891;-79
2021/09/10 03:19:53;;;;;;;25.90;23.10;;;;;;;9.66;91.53;99136.27;111123;1197;61869;-79
2021/09/10 03:22:20;;;;;;;22.20;19.90;;;;;;;9.70;91.43;99138.73;111124;1202;65439;-79
2021/09/10 03:24:46;;;;;;;20.00;18.10;;;;;;;9.71;91.25;99138.33;111142;1204;61804;-79
2021/09/10 03:27:14;;;;;;;21.10;18.90;;;;;;;9.70;91.23;99132.33;111091;1204;64826;-79
2021/09/10 03:29:40;;;;;;;25.50;20.60;;;;;;;9.63;91.28;99133.61;111084;1204;61931;-78
2021/09/10 03:32:07;;;;;;;23.10;20.20;;;;;;;9.59;91.27;99136.04;111094;1204;61886;-78
2021/09/10 03:34:34;;;;;;;22.30;19.30;;;;;;;9.53;91.33;99134.98;111126;1204;66686;-79
2021/09/10 03:37:00;;;;;;;22.90;20.20;;;;;;;9.52;91.39;99134.70;111168;1204;61897;-79
2021/09/10 03:39:27;;;;;;;21.20;19.10;;;;;;;9.51;91.42;99131.36;111178;1204;63975;-79
2021/09/10 03:41:54;;;;;;;22.70;19.90;;;;;;;9.49;91.43;99132.88;111130;1204;61959;-79
2021/09/10 03:44:20;;;;;;;21.30;19.30;;;;;;;9.48;91.33;99134.36;111183;1198;61822;-79
2021/09/10 03:46:47;;;;;;;20.90;18.70;;;;;;;9.47;91.36;99134.41;111121;1204;66831;-79
2021/09/10 03:49:13;;;;;;;20.90;18.60;;;;;;;9.48;91.38;99136.35;111169;1204;61860;-79
2021/09/10 03:51:40;;;;;;;24.80;20.50;;;;;;;9.47;91.25;99131.77;111162;1204;62320;-79
2021/09/10 03:54:07;;;;;;;26.20;22.20;;;;;;;9.47;91.41;99129.98;111142;1195;61921;-79
2021/09/10 03:56:33;;;;;;;25.40;21.20;;;;;;;9.46;91.31;99126.00;111137;1197;61901;-79
2021/09/10 03:59:00;;;;;;;28.00;22.30;;;;;;;9.43;91.21;99129.86;111192;1204;66601;-79
2021/09/10 04:01:26;;;;;;;32.70;25.00;;;;;;;9.41;91.16;99134.98;111146;1204;61928;-79
2021/09/10 04:03:54;;;;;;;25.90;20.90;;;;;;;9.37;91.08;99133.42;111134;1204;63976;-79
2021/09/10 04:06:20;;;;;;;27.40;21.70;;;;;;;9.33;91.00;99132.62;111156;1204;61897;-79
2021/09/10 04:08:48;;;;;;;29.00;22.20;;;;;;;9.29;91.08;99135.17;111152;1204;61874;-79
2021/09/10 04:11:15;;;;;;;28.50;21.60;;;;;;;9.28;91.21;99138.27;111166;1204;67698;-79
2021/09/10 04:13:42;;;;;;;29.30;22.00;;;;;;;9.29;91.29;99136.02;111165;1204;61832;-79
2021/09/10 04:16:08;;;;;;;25.20;20.40;;;;;;;9.30;91.49;99137.74;111167;1204;64724;-79
2021/09/10 04:18:35;;;;;;;25.20;21.40;;;;;;;9.33;91.66;99137.42;111097;1204;61845;-79
2021/09/10 04:21:02;;;;;;;24.40;19.20;;;;;;;9.32;91.65;99136.39;111132;1204;61818;-79
2021/09/10 04:23:28;;;;;;;22.90;20.00;;;;;;;9.36;91.82;99139.52;111161;1204;65366;-80
2021/09/10 04:25:55;;;;;;;22.30;18.90;;;;;;;9.42;91.87;99142.34;111154;1204;61797;-80
2021/09/10 04:28:21;;;;;;;22.30;19.90;;;;;;;9.50;92.05;99143.17;111118;1204;62346;-80
2021/09/10 04:30:48;;;;;;;21.70;19.10;;;;;;;9.67;92.09;99145.44;111108;1204;61912;-80
2021/09/10 04:33:14;;;;;;;24.50;19.50;;;;;;;10.04;91.80;99140.14;111094;1198;61808;-80
2021/09/10 04:35:41;;;;;;;21.00;17.70;;;;;;;10.43;91.20;99134.73;111186;1201;66823;-80
2021/09/10 04:38:08;;;;;;;21.70;19.20;;;;;;;10.74;90.55;99133.23;111193;1204;61972;-81
2021/09/10 04:40:34;;;;;;;21.60;18.40;;;;;;;10.87;90.31;99132.77;111224;1204;64645;-80
2021/09/10 04:43:01;;;;;;;20.50;18.30;;;;;;;10.84;90.34;99133.64;111255;1195;61921;-79
2021/09/10 04:45:27;;;;;;;22.10;19.70;;;;;;;11.12;90.10;99130.17;111284;1198;62196;-80
2021/09/10 04:47:54;;;;;;;20.40;18.40;;;;;;;11.62;89.29;99132.32;111232;1204;65459;-80
2021/09/10 04:50:21;;;;;;;18.90;17.00;;;;;;;11.98;88.50;99134.61;111273;1204;61863;-81
2021/09/10 04:52:47;;;;;;;19.50;17.50;;;;;;;12.41;87.74;99129.65;111210;1204;64077;-79
2021/09/10 04:55:14;;;;;;;20.40;17.30;;;;;;;12.84;86.82;99131.65;111253;1197;61891;-80
2021/09/10 04:57:41;;;;;;;18.80;16.80;;;;;;;13.19;86.23;99131.02;111286;1198;61796;-80
2021/09/10 05:00:08;;;;;;;19.70;16.50;;;;;;;13.46;85.31;99128.79;111260;1200;65397;-79
2021/09/10 05:02:37;;;;;;;21.10;18.10;;;;;;;13.70;84.42;99131.25;111240;1204;61884;-81
2021/09/10 05:05:05;;;;;;;19.60;17.50;;;;;;;14.02;83.79;99131.25;111207;1204;63985;-80
2021/09/10 05:07:32;;;;;;;19.60;17.30;;;;;;;14.30;83.37;99128.99;111257;1204;62443;-81
2021/09/10 05:09:58;;;;;;;16.80;15.20;;;;;;;14.47;82.89;99125.84;111212;1204;61858;-80
2021/09/10 05:12:25;;;;;;;18.40;16.70;;;;;;;14.74;82.27;99124.77;111249;1204;65427;-80
2021/09/10 05:14:52;;;;;;;19.80;16.00;;;;;;;14.98;81.62;99125.80;111224;1203;61816;-80
2021/09/10 05:17:19;;;;;;;17.30;15.40;;;;;;;15.20;81.07;99126.98;111136;1203;65196;-80
2021/09/10 05:19:48;;;;;;;15.80;14.30;;;;;;;15.38;80.43;99130.91;110948;1199;61806;-80
2021/09/10 05:22:15;;;;;;;15.40;13.80;;;;;;;15.53;80.21;99134.65;111069;1204;62001;-80
2021/09/10 05:24:43;;;;;;;15.50;13.60;;;;;;;15.72;79.84;99134.05;111211;1203;67548;-80
2021/09/10 05:27:10;;;;;;;14.20;12.50;;;;;;;15.92;79.09;99132.00;111216;1204;61813;-80
2021/09/10 05:29:36;;;;;;;14.40;12.90;;;;;;;16.09;78.63;99132.36;111229;1204;63962;-81
2021/09/10 05:32:04;;;;;;;14.80;12.40;;;;;;;16.18;77.99;99125.95;111239;1195;61892;-81
2021/09/10 05:34:30;;;;;;;13.50;12.10;;;;;;;16.30;77.75;99125.07;111243;1203;61935;-82
2021/09/10 05:36:57;;;;;;;14.20;12.30;;;;;;;16.47;77.59;99126.85;111222;1204;67630;-81
2021/09/10 05:39:23;;;;;;;16.10;11.90;;;;;;;16.65;77.25;99129.36;111215;1204;61985;-80
2021/09/10 05:41:50;;;;;;;16.00;11.70;;;;;;;16.79;76.65;99128.60;111206;1204;63949;-80
2021/09/10 05:44:18;;;;;;;16.50;12.10;;;;;;;16.84;76.09;99126.04;111241;1198;61966;-80
2021/09/10 05:46:44;;;;;;;11.70;10.60;;;;;;;16.82;75.25;99128.76;111291;1204;61896;-80
2021/09/10 05:49:11;;;;;;;12.00;10.90;;;;;;;16.84;75.18;99127.09;111224;1197;67723;-79
2021/09/10 05:51:38;;;;;;;14.60;12.20;;;;;;;16.90;74.86;99131.80;111212;1204;61770;-81
2021/09/10 05:54:05;;;;;;;13.40;12.00;;;;;;;16.90;74.41;99136.27;111247;1206;62736;-82
2021/09/10 05:56:32;;;;;;;12.40;11.20;;;;;;;16.94;74.69;99135.52;111249;1204;61890;-82
2021/09/10 05:58:58;;;;;;;13.50;11.00;;;;;;;17.03;74.55;99136.89;111293;1204;61891;-81
2021/09/10 06:01:25;;;;;;;13.50;11.20;;;;;;;17.14;74.30;99135.11;111270;1204;67718;-83
2021/09/10 06:03:52;;;;;;;12.00;10.70;;;;;;;17.21;74.08;99138.23;111259;1207;61857;-81
2021/09/10 06:06:19;;;;;;;14.00;11.00;;;;;;;17.30;73.57;99143.16;111244;1204;62622;-82
2021/09/10 06:08:46;;;;;;;12.40;11.20;;;;;;;17.31;73.12;99143.39;111218;1195;61909;-83
2021/09/10 06:11:12;;;;;;;12.80;11.00;;;;;;;17.31;72.79;99143.05;111234;1200;61808;-82
2021/09/10 06:13:39;;;;;;;13.10;10.60;;;;;;;17.35;72.97;99146.84;111249;1204;66720;-79
2021/09/10 06:16:06;;;;;;;11.00;9.90;;;;;;;17.38;72.51;99147.27;111168;1204;61893;-82
2021/09/10 06:18:33;;;;;;;11.20;9.80;;;;;;;17.33;72.49;99142.01;111247;1204;64991;-80
2021/09/10 06:21:02;;;;;;;11.20;10.00;;;;;;;17.33;72.61;99145.63;111234;1205;61950;-80
2021/09/10 06:23:30;;;;;;;11.40;9.90;;;;;;;17.34;72.45;99145.11;111268;1204;61890;-80
2021/09/10 06:25:57;;;;;;;14.70;10.20;;;;;;;17.26;72.46;99144.41;111378;1204;66623;-80
2021/09/10 06:28:24;;;;;;;11.00;9.20;;;;;;;17.09;72.91;99150.48;111352;1200;61944;-78
2021/09/10 06:30:50;;;;;;;13.00;9.90;;;;;;;16.91;73.54;99144.20;111207;1204;62624;-80
2021/09/10 06:33:17;;;;;;;11.20;10.10;;;;;;;16.79;73.76;99144.58;111185;1204;61899;-80
2021/09/10 06:35:43;;;;;;;11.10;10.00;;;;;;;16.64;74.09;99143.02;111195;1200;61806;-81
2021/09/10 06:38:10;;;;;;;12.60;11.20;;;;;;;16.53;74.56;99147.12;111204;1207;66768;-80
2021/09/10 06:40:37;;;;;;;11.20;9.90;;;;;;;16.44;74.81;99146.47;111183;1204;61806;-80
2021/09/10 06:43:03;;;;;;;10.60;9.50;;;;;;;16.38;74.96;99147.67;111178;1204;64798;-80
2021/09/10 06:45:30;;;;;;;11.50;9.80;;;;;;;16.30;74.84;99147.71;111226;1205;61896;-81
2021/09/10 06:47:56;;;;;;;11.50;10.00;;;;;;;16.18;74.87;99149.96;111295;1200;61809;-81
2021/09/10 06:50:23;;;;;;;13.70;10.00;;;;;;;16.12;75.18;99156.07;111295;1198;66925;-80
2021/09/10 06:52:50;;;;;;;10.30;9.30;;;;;;;16.10;75.48;99158.95;111235;1205;61783;-80
2021/09/10 06:55:17;;;;;;;12.80;10.70;;;;;;;16.11;75.64;99158.86;111239;1204;65111;-81
2021/09/10 06:57:44;;;;;;;9.60;8.60;;;;;;;16.14;75.74;99163.79;111230;1204;61890;-79
2021/09/10 07:00:11;;;;;;;13.30;9.50;;;;;;;16.22;76.03;99159.35;111259;1204;61872;-79
2021/09/10 07:02:37;;;;;;;12.90;9.90;;;;;;;16.32;76.20;99164.23;111248;1204;66790;-80
2021/09/10 07:05:04;;;;;;;10.60;9.50;;;;;;;16.41;76.11;99165.04;111264;1204;61966;-80
2021/09/10 07:07:31;;;;;;;12.50;9.00;;;;;;;16.51;76.21;99167.87;111271;1206;62590;-80
2021/09/10 07:09:58;;;;;;;11.00;9.00;;;;;;;16.59;76.09;99166.98;111220;1204;61917;-80
2021/09/10 07:12:25;;;;;;;13.10;8.80;;;;;;;16.67;76.08;99167.73;111286;1196;61894;-80
2021/09/10 07:14:51;;;;;;;13.70;9.10;;;;;;;16.78;75.77;99169.10;111234;1204;65135;-80
2021/09/10 07:17:20;;;;;;;15.40;10.00;;;;;;;16.88;75.99;99167.14;111260;1196;61831;-80
2021/09/10 07:19:48;;;;;;;13.40;9.10;;;;;;;16.99;76.00;99165.39;111281;1204;63771;-80
2021/09/10 07:22:15;;;;;;;10.40;9.30;;;;;;;17.07;75.74;99167.92;111240;1204;61891;-80
2021/09/10 07:24:42;;;;;;;10.50;8.60;;;;;;;17.15;75.86;99166.86;111271;1204;61903;-80
2021/09/10 07:27:09;;;;;;;11.60;9.60;;;;;;;17.26;76.21;99166.02;111262;1204;66617;-78
2021/09/10 07:29:36;;;;;;;11.10;9.30;;;;;;;17.39;76.11;99164.77;111228;1205;61892;-80
2021/09/10 07:32:03;;;;;;;12.00;9.40;;;;;;;17.50;75.95;99163.91;111232;1204;64597;-81
2021/09/10 07:34:30;;;;;;;10.30;9.30;;;;;;;17.61;75.80;99166.38;111274;1204;61921;-79
2021/09/10 07:36:59;;;;;;;10.60;9.50;;;;;;;17.71;75.79;99169.21;111239;1198;61890;-79
2021/09/10 07:39:25;;;;;;;14.30;11.90;;;;;;;17.81;75.49;99170.47;111281;1205;67538;-79
2021/09/10 07:41:52;;;;;;;13.40;10.70;;;;;;;17.89;75.27;99173.48;111280;1204;61961;-79
2021/09/10 07:44:19;;;;;;;12.70;9.40;;;;;;;17.95;75.02;99174.64;111262;1203;63695;-79
2021/09/10 07:46:52;;;;;;;12.10;9.60;;;;;;;18.03;74.96;99171.21;111220;1204;61891;-80
2021/09/10 07:49:22;;;;;;;11.00;9.20;;;;;;;18.13;74.87;99171.56;111261;1196;61809;-79
2021/09/10 07:51:52;;;;;;;13.20;9.50;;;;;;;18.24;74.81;99169.96;111275;1204;66786;-78
2021/09/10 07:54:19;;;;;;;9.70;8.20;;;;;;;18.36;74.54;99170.46;111206;1204;61802;-80
2021/09/10 07:56:45;;;;;;;12.10;8.50;;;;;;;18.46;74.30;99170.21;111169;1204;63950;-79
2021/09/10 07:59:12;;;;;;;10.90;7.70;;;;;;;18.54;73.82;99173.02;111181;1203;61799;-81
2021/09/10 08:01:39;;;;;;;10.30;9.30;;;;;;;18.63;73.70;99174.98;111200;1205;61833;-80
2021/09/10 08:04:06;;;;;;;10.90;8.60;;;;;;;18.72;73.54;99172.99;111274;1204;75512;-80
2021/09/10 08:06:34;;;;;;;9.30;8.40;;;;;;;18.81;73.40;99169.85;111242;1204;61743;-79
2021/09/10 08:09:00;;;;;;;10.30;8.20;;;;;;;18.92;73.60;99170.95;111266;1200;63819;-79
2021/09/10 08:11:29;;;;;;;10.40;7.80;;;;;;;19.02;73.07;99175.67;111238;1204;61934;-79
2021/09/10 08:13:57;;;;;;;11.20;8.20;;;;;;;19.13;73.18;99174.39;111265;1195;61902;-79
2021/09/10 08:16:25;;;;;;;10.60;8.50;;;;;;;19.26;72.98;99174.02;111258;1205;66822;-80
2021/09/10 08:18:52;;;;;;;13.80;7.90;;;;;;;19.39;72.75;99171.60;111267;1205;61915;-80
2021/09/10 08:21:19;;;;;;;10.30;8.20;;;;;;;19.50;72.65;99166.70;111264;1204;64908;-80
2021/09/10 08:23:46;;;;;;;8.60;7.80;;;;;;;19.63;72.86;99165.95;111227;1196;61883;-80
2021/09/10 08:26:12;;;;;;;10.20;8.60;;;;;;;19.71;72.36;99165.64;111236;1198;63352;-80
2021/09/10 08:28:39;;;;;;;10.30;8.60;;;;;;;19.77;71.88;99163.52;111264;1202;66770;-79
2021/09/10 08:31:05;;;;;;;9.20;7.80;;;;;;;19.84;71.80;99165.63;111261;1204;61790;-80
2021/09/10 08:33:32;;;;;;;11.40;8.00;;;;;;;19.95;71.92;99159.65;111290;1204;64067;-80
2021/09/10 08:35:59;;;;;;;12.60;8.10;;;;;;;20.05;71.76;99160.80;111204;1201;61931;-80
2021/09/10 08:38:25;;;;;;;10.30;8.50;;;;;;;20.13;71.43;99158.52;111262;1199;61884;-80
2021/09/10 08:40:57;;;;;;;9.60;8.20;;;;;;;20.18;71.16;99155.44;111273;1204;65448;-80
2021/09/10 08:43:25;;;;;;;11.60;8.50;;;;;;;20.26;71.33;99156.21;111291;1204;61849;-80
2021/09/10 08:45:57;;;;;;;9.60;7.80;;;;;;;20.37;71.08;99156.19;111268;1205;64111;-78
2021/09/10 08:48:24;;;;;;;11.60;7.90;;;;;;;20.46;71.12;99153.79;111289;1195;61883;-79
2021/09/10 08:50:51;;;;;;;12.00;7.70;;;;;;;20.57;70.64;99158.36;111278;1205;61881;-79
2021/09/10 08:53:18;;;;;;;9.60;8.30;;;;;;;20.67;70.33;99158.41;111212;1204;65418;-80
2021/09/10 08:55:44;;;;;;;9.90;7.70;;;;;;;20.78;70.11;99155.14;111219;1204;61895;-84
2021/09/10 08:58:11;;;;;;;10.60;7.10;;;;;;;20.89;70.12;99155.73;111281;1204;62354;-84
2021/09/10 09:00:40;;;;;;;8.50;7.70;;;;;;;21.03;70.13;99154.94;111745;1205;61798;-82
2021/09/10 09:03:10;;;;;;;9.20;7.30;;;;;;;21.16;69.74;99153.36;111278;1203;61892;-80
2021/09/10 09:05:37;;;;;;;9.20;7.00;;;;;;;21.29;69.46;99153.05;111222;1203;66773;-83
2021/09/10 09:08:12;;;;;;;9.00;7.20;;;;;;;21.40;69.06;99154.34;111283;1204;61838;-80
2021/09/10 09:10:59;;;;;;;8.20;7.40;;;;;;;21.50;68.72;99153.34;111223;1205;64663;-80
2021/09/10 09:13:33;;;;;;;10.20;7.00;;;;;;;21.64;68.44;99153.95;111186;1204;61879;-81
2021/09/10 09:16:24;;;;;;;8.20;7.00;;;;;;;21.75;68.09;99155.60;111279;1197;62616;-81
2021/09/10 09:18:57;;;;;;;8.70;6.70;;;;;;;21.86;67.54;99155.49;111268;1205;66715;-80
2021/09/10 09:21:25;;;;;;;8.90;6.80;;;;;;;21.95;67.48;99152.64;111283;1204;61994;-80
2021/09/10 09:23:54;;;;;;;10.20;7.40;;;;;;;22.05;67.00;99148.32;111264;1204;62631;-78
2021/09/10 09:26:25;;;;;;;7.80;7.00;;;;;;;22.14;66.82;99141.98;111166;1206;61986;-78
2021/09/10 09:29:07;;;;;;;9.40;6.80;;;;;;;22.26;66.58;99140.89;111232;1196;61869;-77
2021/09/10 09:31:36;;;;;;;6.20;4.90;;;;;;;22.39;66.51;99135.02;111213;1204;67647;-79
2021/09/10 09:34:04;;;;;;;6.80;4.70;;;;;;;22.48;64.70;99134.55;111184;1204;61913;-78
2021/09/10 09:36:32;;;;;;;4.60;4.00;;;;;;;22.57;63.95;99132.07;111239;1204;63959;-78
2021/09/10 09:39:07;;;;;;;4.60;3.80;;;;;;;22.69;63.02;99127.02;111185;1199;61894;-80
2021/09/10 09:41:41;;;;;;;4.60;3.90;;;;;;;22.83;61.70;99124.95;111240;1198;61886;-80
2021/09/10 09:44:15;;;;;;;6.30;3.80;;;;;;;22.95;61.57;99125.00;111278;1204;66645;-79
2021/09/10 09:46:44;;;;;;;5.50;3.20;;;;;;;23.05;60.54;99126.25;111284;1204;61892;-81
2021/09/10 09:49:13;;;;;;;6.40;3.50;;;;;;;23.13;59.57;99123.38;111181;1205;72719;-80
2021/09/10 09:52:02;;;;;;;5.80;2.90;;;;;;;23.21;58.83;99126.40;111211;1198;61934;-80
2021/09/10 09:54:29;;;;;;;3.30;3.00;;;;;;;23.31;57.77;99119.66;110995;1204;61882;-80
2021/09/10 09:56:57;;;;;;;18.70;3.90;;;;;;;23.37;55.79;99113.52;110936;1204;66963;-78
2021/09/10 09:59:24;;;;;;;9.10;3.00;;;;;;;23.42;55.64;99116.55;111066;1204;61867;-78
2021/09/10 10:01:50;;;;;;;8.70;2.90;;;;;;;23.49;55.15;99117.89;111195;1204;63567;-78
2021/09/10 10:04:20;;;;;;;3.70;3.00;;;;;;;23.58;55.35;99120.30;111179;1196;61857;-77
2021/09/10 10:06:50;;;;;;;9.10;6.30;;;;;;;23.64;54.14;99122.06;111214;1196;61886;-76
2021/09/10 10:09:22;;;;;;;9.50;6.10;;;;;;;23.69;52.95;99120.03;111196;1205;65360;-79
2021/09/10 10:11:59;;;;;;;7.40;4.00;;;;;;;23.75;53.44;99121.50;111222;1203;61899;-80
2021/09/10 10:14:32;;;;;;;3.70;3.30;;;;;;;23.83;53.19;99122.40;111203;1204;65068;-78
2021/09/10 10:17:03;;;;;;;3.10;2.80;;;;;;;23.90;52.86;99120.24;111193;1196;61924;-78
2021/09/10 10:19:32;;;;;;;5.60;3.20;;;;;;;23.97;52.23;99114.15;111201;1197;61966;-78
2021/09/10 10:22:07;;;;;;;3.40;3.10;;;;;;;24.02;51.71;99112.40;111188;1204;65485;-78
2021/09/10 10:24:50;;;;;;;3.70;2.90;;;;;;;24.06;50.86;99109.94;111192;1206;61952;-78
2021/09/10 10:27:36;;;;;;;2.90;2.60;;;;;;;24.09;50.75;99107.05;111220;1203;62638;-78
2021/09/10 10:30:07;;;;;;;5.70;2.90;;;;;;;24.13;50.56;99101.90;111137;1204;61870;-77
2021/09/10 10:32:39;;;;;;;4.80;2.40;;;;;;;24.15;50.23;99101.89;111053;1198;61881;-79
2021/09/10 10:35:27;;;;;;;4.20;2.70;;;;;;;24.17;49.79;99102.33;111022;1204;66802;-78
2021/09/10 10:38:11;;;;;;;6.60;3.30;;;;;;;24.23;49.85;99108.08;111032;1204;61911;-77
2021/09/10 10:40:47;;;;;;;3.60;2.70;;;;;;;24.27;49.67;99109.96;111128;1205;62312;-77
2021/09/10 10:43:23;;;;;;;5.50;3.00;;;;;;;24.28;49.10;99107.30;111164;1200;61882;-79
2021/09/10 10:46:07;;;;;;;5.30;2.90;;;;;;;24.30;48.86;99103.06;111260;1204;61915;-79
2021/09/10 10:48:34;;;;;;;5.50;3.00;;;;;;;24.33;48.70;99102.64;111235;1205;67711;-78
2021/09/10 10:51:16;;;;;;;4.00;3.00;;;;;;;24.36;47.62;99101.09;111185;1204;62408;-78
2021/09/10 10:53:43;;;;;;;6.20;3.00;;;;;;;24.40;48.04;99095.56;111163;1204;63719;-78
2021/09/10 10:56:42;;;;;;;5.40;2.90;;;;;;;24.45;48.12;99089.25;111199;1204;61893;-78
2021/09/10 10:59:15;;;;;;;4.30;3.00;;;;;;;24.50;47.77;99090.80;111158;1203;62318;-78
2021/09/10 11:02:31;;;;;;;5.90;2.90;;;;;;;24.52;47.89;99091.57;111202;1203;66843;-78
2021/09/10 11:05:20;;;;;;;4.80;2.50;;;;;;;24.57;48.05;99085.80;111203;1204;61911;-77
2021/09/10 11:07:47;;;;;;;4.00;3.10;;;;;;;24.58;47.21;99080.82;111202;1203;72698;-77
2021/09/10 11:10:20;;;;;;;4.50;3.10;;;;;;;24.60;47.49;99082.31;111213;1204;61920;-78
2021/09/10 11:12:55;;;;;;;6.30;3.10;;;;;;;24.64;47.30;99081.81;111201;1205;61853;-77
2021/09/10 11:15:36;;;;;;;3.90;2.90;;;;;;;24.67;47.16;99079.59;111195;1206;66112;-77
2021/09/10 11:18:13;;;;;;;6.60;3.20;;;;;;;24.70;46.77;99081.05;111224;1205;61866;-78
2021/09/10 11:20:50;;;;;;;5.00;3.30;;;;;;;24.68;46.80;99074.91;111163;1207;64962;-78
2021/09/10 11:23:35;;;;;;;6.60;3.20;;;;;;;24.69;47.10;99073.55;111196;1204;61805;-78